Time;durP1;ratioP1;P1;durP2;ratioP2;P2;SDS_P1;SDS_P2;PMS_P1;PMS_P2;Temp;Humidity;BMP_temperature;BMP_pressure;BME280_temperature;BME280_humidity;BME280_pressure;Samples;Min_cycle;Max_cycle;Signal;HPM_P1;HPM_P2
2023/03/06 00:02:09;;;;;;;;;;;;;;;2.91;62.08;97199.69;5088071;28;19939;-55
2023/03/06 00:04:37;;;;;;;;;;;;;;;2.84;62.57;97197.34;5072831;28;19927;-57
2023/03/06 00:07:05;;;;;;;;;;;;;;;2.96;61.73;97197.78;5090987;28;19931;-57
2023/03/06 00:09:33;;;;;;;;;;;;;;;2.85;62.09;97188.22;5091078;28;20405;-55
2023/03/06 00:12:01;;;;;;;;;;;;;;;2.79;62.55;97186.63;5092908;28;20388;-56
2023/03/06 00:14:33;;;;;;;;;;;;;;;2.74;62.61;97186.69;5079805;28;20400;-60
2023/03/06 00:17:01;;;;;;;;;;;;;;;2.72;63.10;97183.47;5087854;28;19973;-57
2023/03/06 00:19:29;;;;;;;;;;;;;;;2.80;62.72;97180.19;5089841;28;19928;-56
2023/03/06 00:21:56;;;;;;;;;;;;;;;2.72;62.90;97184.28;5079087;28;20015;-56
2023/03/06 00:24:24;;;;;;;;;;;;;;;2.78;62.75;97177.00;5090050;28;19924;-55
2023/03/06 00:26:52;;;;;;;;;;;;;;;2.73;62.92;97177.03;5090295;28;19962;-56
2023/03/06 00:29:20;;;;;;;;;;;;;;;2.71;63.32;97171.13;5080381;28;19928;-56
2023/03/06 00:31:49;;;;;;;;;;;;;;;2.75;63.03;97169.50;5075569;28;20277;-56
2023/03/06 00:34:17;;;;;;;;;;;;;;;2.81;62.39;97160.31;5106826;28;20380;-57
2023/03/06 00:36:46;;;;;;;;;;;;;;;2.74;62.75;97159.84;5106690;28;19969;-56
2023/03/06 00:39:13;;;;;;;;;;;;;;;2.84;62.53;97162.47;5095436;28;19930;-56
2023/03/06 00:41:41;;;;;;;;;;;;;;;2.87;62.34;97161.88;5094457;28;19924;-56
2023/03/06 00:44:13;;;;;;;;;;;;;;;2.69;62.62;97158.00;5101170;28;19961;-57
2023/03/06 00:46:41;;;;;;;;;;;;;;;2.67;62.65;97152.13;5073539;28;19956;-56
2023/03/06 00:49:10;;;;;;;;;;;;;;;2.66;62.61;97144.34;5074125;28;19924;-57
2023/03/06 00:51:37;;;;;;;;;;;;;;;2.74;62.33;97149.13;5062890;28;19928;-56
2023/03/06 00:54:05;;;;;;;;;;;;;;;2.76;62.27;97144.28;5086328;28;20366;-56
2023/03/06 00:56:33;;;;;;;;;;;;;;;2.73;62.50;97142.16;5088208;28;19931;-57
2023/03/06 00:59:00;;;;;;;;;;;;;;;2.73;62.77;97131.44;5087772;28;19932;-56
2023/03/06 01:01:29;;;;;;;;;;;;;;;2.74;62.37;97139.19;5081914;28;19932;-56
2023/03/06 01:03:56;;;;;;;;;;;;;;;2.76;62.24;97130.84;5081812;28;19932;-56
2023/03/06 01:06:26;;;;;;;;;;;;;;;2.65;62.79;97124.78;5091885;28;19924;-56
2023/03/06 01:08:53;;;;;;;;;;;;;;;2.65;62.99;97121.28;5077916;28;19933;-55
2023/03/06 01:11:21;;;;;;;;;;;;;;;2.72;63.26;97124.47;5072981;28;19924;-55
2023/03/06 01:13:49;;;;;;;;;;;;;;;2.69;63.24;97125.03;5082663;28;20458;-56
2023/03/06 01:16:20;;;;;;;;;;;;;;;2.63;63.21;97114.31;5084794;28;19963;-55
2023/03/06 01:18:48;;;;;;;;;;;;;;;2.51;64.13;97105.03;5099732;28;19947;-56
2023/03/06 01:21:16;;;;;;;;;;;;;;;2.65;63.92;97105.19;5103200;28;19939;-58
2023/03/06 01:23:46;;;;;;;;;;;;;;;2.60;63.90;97106.81;5097781;28;19928;-55
2023/03/06 01:26:14;;;;;;;;;;;;;;;2.60;63.73;97093.41;5105073;28;19931;-56
2023/03/06 01:28:41;;;;;;;;;;;;;;;2.66;63.58;97093.38;5103486;28;19924;-57
2023/03/06 01:31:09;;;;;;;;;;;;;;;2.52;64.24;97098.59;5093017;28;19945;-62
2023/03/06 01:33:37;;;;;;;;;;;;;;;2.57;64.56;97093.19;5092213;28;19924;-56
2023/03/06 01:36:06;;;;;;;;;;;;;;;2.56;64.16;97099.66;5104615;28;19923;-56
2023/03/06 01:38:34;;;;;;;;;;;;;;;2.47;64.71;97098.63;5110044;28;19924;-56
2023/03/06 01:41:03;;;;;;;;;;;;;;;2.46;64.61;97089.78;5100083;28;20434;-56
2023/03/06 01:43:32;;;;;;;;;;;;;;;2.48;64.68;97090.31;5101861;28;20384;-57
2023/03/06 01:46:21;;;;;;;;;;;;;;;2.47;64.34;97080.66;5100344;28;19934;-56
2023/03/06 01:48:50;;;;;;;;;;;;;;;2.46;64.78;97078.28;5094238;28;19931;-55
2023/03/06 01:51:18;;;;;;;;;;;;;;;2.40;65.44;97074.81;5107994;28;19939;-56
2023/03/06 01:53:46;;;;;;;;;;;;;;;2.43;64.80;97076.94;5106765;28;19924;-55
2023/03/06 01:56:15;;;;;;;;;;;;;;;2.49;64.53;97072.34;5085814;28;19923;-55
2023/03/06 01:58:43;;;;;;;;;;;;;;;2.46;65.01;97079.06;5094221;28;19931;-56
2023/03/06 02:01:11;;;;;;;;;;;;;;;2.43;64.54;97065.41;5078350;28;19925;-55
2023/03/06 02:03:39;;;;;;;;;;;;;;;1.90;67.05;97066.00;5070682;28;20404;-56
2023/03/06 02:06:09;;;;;;;;;;;;;;;2.23;65.72;97069.03;5088630;28;19935;-55
2023/03/06 02:08:37;;;;;;;;;;;;;;;2.33;65.20;97059.03;5070121;28;19936;-56
2023/03/06 02:11:09;;;;;;;;;;;;;;;2.32;65.49;97059.31;5071697;28;19931;-55
2023/03/06 02:13:38;;;;;;;;;;;;;;;2.34;65.42;97052.63;5072581;28;19928;-56
2023/03/06 02:16:07;;;;;;;;;;;;;;;2.33;65.14;97047.50;5071461;28;20278;-56
2023/03/06 02:18:35;;;;;;;;;;;;;;;2.30;65.99;97048.09;5063926;28;19924;-58
2023/03/06 02:21:03;;;;;;;;;;;;;;;2.25;65.75;97056.16;5070355;28;19993;-56
2023/03/06 02:23:32;;;;;;;;;;;;;;;2.38;65.47;97049.38;5072467;28;19924;-56
2023/03/06 02:26:01;;;;;;;;;;;;;;;2.37;65.33;97040.53;5073029;28;19928;-55
2023/03/06 02:28:29;;;;;;;;;;;;;;;2.38;65.29;97039.44;5084684;28;19931;-55
2023/03/06 02:30:58;;;;;;;;;;;;;;;2.38;64.93;97034.06;5103364;28;19963;-55
2023/03/06 02:33:27;;;;;;;;;;;;;;;2.29;65.64;97027.69;5090021;28;19951;-55
2023/03/06 02:35:57;;;;;;;;;;;;;;;2.29;65.10;97027.69;5089495;28;19935;-57
2023/03/06 02:38:26;;;;;;;;;;;;;;;2.34;65.14;97020.44;5055844;28;19967;-55
2023/03/06 02:40:54;;;;;;;;;;;;;;;2.28;65.32;97026.09;5070751;28;19978;-55
2023/03/06 02:43:24;;;;;;;;;;;;;;;2.33;65.53;97012.66;5052522;28;19993;-55
2023/03/06 02:45:52;;;;;;;;;;;;;;;2.21;65.53;97014.91;5048170;28;20700;-55
2023/03/06 02:48:20;;;;;;;;;;;;;;;2.39;65.26;97014.22;5060775;28;19935;-56
2023/03/06 02:50:48;;;;;;;;;;;;;;;2.28;65.60;97015.38;5033318;28;19924;-56
2023/03/06 02:53:16;;;;;;;;;;;;;;;2.33;65.76;97013.47;5051566;28;19928;-56
2023/03/06 02:55:45;;;;;;;;;;;;;;;2.23;65.92;97018.09;5058433;28;19931;-55
2023/03/06 02:58:15;;;;;;;;;;;;;;;2.19;65.67;97020.56;5060505;28;19932;-55
2023/03/06 03:00:44;;;;;;;;;;;;;;;2.29;65.90;97014.31;5066221;28;20371;-56
2023/03/06 03:03:12;;;;;;;;;;;;;;;2.32;65.64;97013.75;5088858;28;19924;-55
2023/03/06 03:05:41;;;;;;;;;;;;;;;2.34;65.34;97003.53;5086990;28;19928;-56
2023/03/06 03:08:15;;;;;;;;;;;;;;;2.29;65.67;97011.63;5080901;28;20393;-56
2023/03/06 03:10:42;;;;;;;;;;;;;;;2.32;65.39;96995.78;5078466;28;19931;-56
2023/03/06 03:13:13;;;;;;;;;;;;;;;2.23;66.16;96993.97;5084072;28;20365;-56
2023/03/06 03:15:44;;;;;;;;;;;;;;;2.27;65.71;96993.16;5064602;28;19931;-56
2023/03/06 03:18:12;;;;;;;;;;;;;;;2.27;66.24;96984.31;5076500;28;19925;-56
2023/03/06 03:20:41;;;;;;;;;;;;;;;2.19;66.22;96979.56;5086525;28;19935;-56
2023/03/06 03:23:10;;;;;;;;;;;;;;;2.32;66.02;96990.44;5076658;28;20420;-55
2023/03/06 03:25:37;;;;;;;;;;;;;;;2.07;66.75;96986.06;5080521;28;19924;-55
2023/03/06 03:28:06;;;;;;;;;;;;;;;2.19;66.07;96979.56;5088836;28;19931;-55
2023/03/06 03:30:34;;;;;;;;;;;;;;;2.14;66.68;96975.03;5072779;28;19961;-56
2023/03/06 03:33:04;;;;;;;;;;;;;;;2.22;66.57;96976.31;5085255;28;19931;-56
2023/03/06 03:35:32;;;;;;;;;;;;;;;2.07;66.77;96975.34;5080281;28;19938;-58
2023/03/06 03:38:00;;;;;;;;;;;;;;;2.21;66.35;96977.41;5088284;28;19951;-58
2023/03/06 03:40:29;;;;;;;;;;;;;;;2.18;66.35;96975.25;5072361;28;19970;-56
2023/03/06 03:42:58;;;;;;;;;;;;;;;2.11;66.74;96972.91;5085717;28;20377;-55
2023/03/06 03:45:27;;;;;;;;;;;;;;;2.16;66.30;96978.22;5085811;28;19924;-55
2023/03/06 03:47:55;;;;;;;;;;;;;;;2.12;66.49;96973.72;5106992;28;19924;-56
2023/03/06 03:50:25;;;;;;;;;;;;;;;2.07;66.95;96980.69;5072492;28;19963;-55
2023/03/06 03:52:53;;;;;;;;;;;;;;;2.14;66.81;96963.53;5083875;28;19929;-55
2023/03/06 03:55:21;;;;;;;;;;;;;;;2.14;66.56;96960.84;5103656;28;19970;-56
2023/03/06 03:57:49;;;;;;;;;;;;;;;2.15;66.90;96959.75;5083138;28;19974;-55
2023/03/06 04:00:17;;;;;;;;;;;;;;;2.08;67.07;96952.84;5081668;28;19931;-56
2023/03/06 04:02:55;;;;;;;;;;;;;;;1.93;67.39;96955.63;5082241;28;19970;-55
2023/03/06 04:05:34;;;;;;;;;;;;;;;2.01;67.36;96941.63;5086337;28;19935;-56
2023/03/06 04:08:06;;;;;;;;;;;;;;;2.06;66.98;96946.94;5077821;28;19928;-56
2023/03/06 04:10:38;;;;;;;;;;;;;;;2.00;67.19;96945.41;5082079;28;19928;-55
2023/03/06 04:13:07;;;;;;;;;;;;;;;2.13;67.29;96941.28;5087952;28;19924;-55
2023/03/06 04:15:40;;;;;;;;;;;;;;;2.17;67.16;96944.19;5070434;28;20305;-55
2023/03/06 04:18:09;;;;;;;;;;;;;;;2.24;66.59;96944.69;5074877;28;20407;-55
2023/03/06 04:20:39;;;;;;;;;;;;;;;2.14;67.04;96942.09;5087982;28;20327;-56
2023/03/06 04:23:07;;;;;;;;;;;;;;;2.10;67.19;96941.84;5091324;28;19986;-55
2023/03/06 04:25:35;;;;;;;;;;;;;;;2.10;66.74;96937.28;5079396;28;19977;-56
2023/03/06 04:28:05;;;;;;;;;;;;;;;1.84;68.17;96941.22;5086746;28;19924;-56
2023/03/06 04:30:35;;;;;;;;;;;;;;;1.93;68.08;96939.56;5075958;28;19932;-56
2023/03/06 04:33:05;;;;;;;;;;;;;;;1.94;67.80;96935.00;5085233;28;19924;-55
2023/03/06 04:35:33;;;;;;;;;;;;;;;1.98;68.23;96934.16;5074074;28;19932;-56
2023/03/06 04:38:07;;;;;;;;;;;;;;;2.10;67.43;96934.59;5075432;28;20377;-55
2023/03/06 04:40:35;;;;;;;;;;;;;;;2.06;67.50;96930.88;5094585;28;19932;-56
2023/03/06 04:43:03;;;;;;;;;;;;;;;2.06;67.52;96930.88;5089090;28;20335;-61
2023/03/06 04:45:32;;;;;;;;;;;;;;;1.94;67.63;96922.41;5082060;28;19950;-58
2023/03/06 04:48:00;;;;;;;;;;;;;;;2.02;67.35;96927.16;5089634;28;20030;-61
2023/03/06 04:50:31;;;;;;;;;;;;;;;2.04;67.21;96921.53;5089627;28;20040;-57
2023/03/06 04:53:00;;;;;;;;;;;;;;;1.93;67.98;96920.81;5087850;28;19932;-64
2023/03/06 04:55:29;;;;;;;;;;;;;;;1.92;68.12;96919.22;5110469;28;20293;-56
2023/03/06 04:57:57;;;;;;;;;;;;;;;1.94;68.01;96916.25;5087673;28;19931;-61
2023/03/06 05:00:29;;;;;;;;;;;;;;;1.96;67.63;96914.88;5085961;28;19928;-62
2023/03/06 05:02:57;;;;;;;;;;;;;;;1.98;68.20;96912.75;5084130;28;19933;-57
2023/03/06 05:05:25;;;;;;;;;;;;;;;1.96;68.20;96908.72;5093348;28;19931;-57
2023/03/06 05:07:53;;;;;;;;;;;;;;;2.08;67.49;96907.31;5095651;28;19932;-55
2023/03/06 05:10:21;;;;;;;;;;;;;;;2.00;68.08;96910.56;5083946;28;20292;-59
2023/03/06 05:12:50;;;;;;;;;;;;;;;2.08;67.66;96909.19;5097472;28;20295;-62
2023/03/06 05:15:21;;;;;;;;;;;;;;;2.06;67.89;96908.66;5078986;28;19935;-56
2023/03/06 05:17:48;;;;;;;;;;;;;;;2.24;67.24;96912.53;5085912;28;19932;-56
2023/03/06 05:20:17;;;;;;;;;;;;;;;2.26;67.05;96905.78;5091192;28;19924;-63
2023/03/06 05:22:44;;;;;;;;;;;;;;;2.13;67.67;96900.28;5093101;28;20319;-56
2023/03/06 05:25:12;;;;;;;;;;;;;;;2.02;68.02;96904.94;5096640;28;19943;-56
2023/03/06 05:27:40;;;;;;;;;;;;;;;2.14;67.48;96904.59;5091476;28;19924;-61
2023/03/06 05:30:10;;;;;;;;;;;;;;;2.05;68.07;96905.16;5088168;28;20369;-56
2023/03/06 05:32:40;;;;;;;;;;;;;;;1.97;68.56;96905.78;5095026;28;20270;-55
2023/03/06 05:35:08;;;;;;;;;;;;;;;2.04;68.33;96895.53;5087420;28;19931;-55
2023/03/06 05:37:36;;;;;;;;;;;;;;;2.08;68.26;96907.31;5096750;28;19928;-56
2023/03/06 05:40:05;;;;;;;;;;;;;;;2.14;67.83;96896.53;5108154;28;19925;-55
2023/03/06 05:42:33;;;;;;;;;;;;;;;2.11;68.10;96897.88;5101848;28;19931;-55
2023/03/06 05:45:01;;;;;;;;;;;;;;;2.06;67.89;96893.38;5094253;28;19931;-55
2023/03/06 05:47:30;;;;;;;;;;;;;;;2.10;67.84;96898.97;5098640;28;20327;-55
2023/03/06 05:49:58;;;;;;;;;;;;;;;2.14;67.87;96891.19;5094337;28;19924;-58
2023/03/06 05:52:26;;;;;;;;;;;;;;;2.15;67.99;96890.09;5106942;28;21437;-56
2023/03/06 05:54:54;;;;;;;;;;;;;;;2.19;67.89;96897.28;5102722;28;19927;-55
2023/03/06 05:57:22;;;;;;;;;;;;;;;2.19;67.51;96883.91;5105266;28;19924;-56
2023/03/06 05:59:50;;;;;;;;;;;;;;;2.22;67.63;96891.34;5107044;28;19931;-55
2023/03/06 06:02:18;;;;;;;;;;;;;;;2.30;67.23;96889.97;5090044;28;19924;-55
2023/03/06 06:04:47;;;;;;;;;;;;;;;2.36;66.81;96889.63;5096540;28;19924;-55
2023/03/06 06:07:15;;;;;;;;;;;;;;;2.38;66.80;96888.53;5097517;28;19939;-54
2023/03/06 06:09:44;;;;;;;;;;;;;;;2.39;66.70;96888.25;5105560;28;19927;-55
2023/03/06 06:12:12;;;;;;;;;;;;;;;2.37;66.90;96877.00;5099388;28;19928;-54
2023/03/06 06:14:40;;;;;;;;;;;;;;;2.57;65.92;96876.81;5108772;28;19924;-55
2023/03/06 06:17:08;;;;;;;;;;;;;;;2.50;66.36;96873.66;5098592;28;19924;-54
2023/03/06 06:19:35;;;;;;;;;;;;;;;2.49;66.43;96872.06;5088768;28;20446;-64
2023/03/06 06:22:05;;;;;;;;;;;;;;;2.53;65.83;96875.78;5101796;28;19932;-58
2023/03/06 06:24:32;;;;;;;;;;;;;;;2.39;66.26;96869.47;5100401;28;19924;-56
2023/03/06 06:27:00;;;;;;;;;;;;;;;2.39;66.61;96872.16;5104410;28;19924;-54
2023/03/06 06:29:30;;;;;;;;;;;;;;;2.46;66.16;96875.31;5102008;28;19945;-58
2023/03/06 06:31:59;;;;;;;;;;;;;;;2.61;65.63;96874.38;5097726;28;19928;-55
2023/03/06 06:34:26;;;;;;;;;;;;;;;2.44;66.10;96869.44;5101438;28;19928;-55
2023/03/06 06:36:54;;;;;;;;;;;;;;;2.48;65.90;96875.03;5100414;28;19946;-55
2023/03/06 06:39:24;;;;;;;;;;;;;;;2.47;66.30;96866.19;5100638;28;19931;-55
2023/03/06 06:41:51;;;;;;;;;;;;;;;2.46;66.53;96872.66;5096295;28;19936;-54
2023/03/06 06:44:39;;;;;;;;;;;;;;;2.45;66.26;96868.38;5109725;28;20038;-56
2023/03/06 06:47:07;;;;;;;;;;;;;;;2.43;66.37;96865.16;5096377;28;20616;-54
2023/03/06 06:49:50;;;;;;;;;;;;;;;2.61;66.14;96869.00;5099877;28;19944;-54
2023/03/06 06:52:18;;;;;;;;;;;;;;;2.79;65.40;96876.28;5112130;28;19924;-56
2023/03/06 06:54:47;;;;;;;;;;;;;;;2.87;65.15;96874.84;5106234;28;19923;-54
2023/03/06 06:57:16;;;;;;;;;;;;;;;2.97;64.59;96879.28;5102282;28;20763;-55
2023/03/06 06:59:44;;;;;;;;;;;;;;;2.91;65.16;96877.75;5102129;28;19928;-54
2023/03/06 07:02:11;;;;;;;;;;;;;;;2.96;64.50;96877.69;5096096;28;19931;-55
2023/03/06 07:04:39;;;;;;;;;;;;;;;2.97;64.86;96890.81;5103985;28;19932;-54
2023/03/06 07:07:22;;;;;;;;;;;;;;;2.96;64.92;96889.22;5096083;28;19928;-57
2023/03/06 07:09:54;;;;;;;;;;;;;;;3.03;64.30;96887.00;5105115;28;19924;-55
2023/03/06 07:12:24;;;;;;;;;;;;;;;3.17;63.93;96892.47;5092788;28;19959;-56
2023/03/06 07:14:52;;;;;;;;;;;;;;;3.27;63.92;96894.22;5097291;28;19931;-55
2023/03/06 07:17:20;;;;;;;;;;;;;;;3.27;63.92;96894.22;5101129;28;19924;-54
2023/03/06 07:19:48;;;;;;;;;;;;;;;3.27;64.06;96892.34;5106710;28;20940;-55
2023/03/06 07:22:16;;;;;;;;;;;;;;;3.41;62.89;96895.13;5109045;28;19924;-55
2023/03/06 07:24:43;;;;;;;;;;;;;;;3.33;63.39;96882.31;5113600;28;19924;-55
2023/03/06 07:27:12;;;;;;;;;;;;;;;3.41;63.35;96884.38;5096191;28;19939;-57
2023/03/06 07:29:42;;;;;;;;;;;;;;;3.47;62.66;96879.72;5099199;28;19923;-55
2023/03/06 07:32:09;;;;;;;;;;;;;;;3.50;62.61;96882.59;5080899;28;19994;-56
2023/03/06 07:34:37;;;;;;;;;;;;;;;3.65;62.63;96885.06;5083876;28;19927;-56
2023/03/06 07:37:07;;;;;;;;;;;;;;;3.64;62.06;96880.00;5111566;28;20277;-55
2023/03/06 07:39:35;;;;;;;;;;;;;;;3.57;62.54;96877.69;5086695;28;19928;-58
2023/03/06 07:42:02;;;;;;;;;;;;;;;3.59;62.23;96877.41;5090365;28;19924;-56
2023/03/06 07:44:35;;;;;;;;;;;;;;;3.52;62.47;96885.81;5114139;28;19930;-55
2023/03/06 07:47:03;;;;;;;;;;;;;;;3.63;62.22;96887.25;5089257;28;20392;-55
2023/03/06 07:49:31;;;;;;;;;;;;;;;3.70;61.87;96886.91;5093074;28;19931;-55
2023/03/06 07:51:59;;;;;;;;;;;;;;;3.77;61.85;96881.16;5088071;28;19924;-54
2023/03/06 07:54:29;;;;;;;;;;;;;;;3.79;61.51;96879.78;5089285;28;19924;-55
2023/03/06 07:56:57;;;;;;;;;;;;;;;3.52;62.27;96888.50;5086858;28;20347;-56
2023/03/06 07:59:25;;;;;;;;;;;;;;;3.52;62.97;96890.41;5064948;28;19989;-55
2023/03/06 08:01:55;;;;;;;;;;;;;;;3.59;62.63;96896.19;5084106;28;19925;-55
2023/03/06 08:04:23;;;;;;;;;;;;;;;3.67;62.11;96899.03;5083163;28;19935;-55
2023/03/06 08:06:52;;;;;;;;;;;;;;;3.71;61.37;96887.69;5091721;28;20369;-56
2023/03/06 08:09:20;;;;;;;;;;;;;;;3.75;61.07;96894.09;5090667;28;19935;-55
2023/03/06 08:11:47;;;;;;;;;;;;;;;3.75;61.21;96894.09;5080231;28;19932;-56
2023/03/06 08:14:15;;;;;;;;;;;;;;;3.89;61.02;96893.06;5091385;28;20296;-57
2023/03/06 08:16:43;;;;;;;;;;;;;;;3.94;60.78;96890.28;5072859;28;19925;-55
2023/03/06 08:19:12;;;;;;;;;;;;;;;4.03;60.60;96885.03;5085547;28;19936;-55
2023/03/06 08:21:40;;;;;;;;;;;;;;;4.14;60.51;96897.19;5085902;28;20388;-56
2023/03/06 08:24:08;;;;;;;;;;;;;;;4.09;60.52;96896.50;5078951;28;19924;-56
2023/03/06 08:26:36;;;;;;;;;;;;;;;4.30;59.90;96896.94;5082026;28;19935;-56
2023/03/06 08:29:04;;;;;;;;;;;;;;;4.29;59.46;96893.47;5084557;28;19935;-55
2023/03/06 08:31:33;;;;;;;;;;;;;;;4.44;59.02;96901.25;5073480;28;19938;-58
2023/03/06 08:34:02;;;;;;;;;;;;;;;4.23;59.27;96889.25;5083898;28;19924;-54
2023/03/06 08:36:31;;;;;;;;;;;;;;;4.45;58.43;96899.38;5079140;28;19924;-55
2023/03/06 08:38:59;;;;;;;;;;;;;;;4.47;58.50;96891.78;5078681;28;19924;-55
2023/03/06 08:41:27;;;;;;;;;;;;;;;4.63;57.91;96903.06;5087310;28;20387;-55
2023/03/06 08:43:55;;;;;;;;;;;;;;;4.66;57.41;96897.13;5083970;28;19928;-57
2023/03/06 08:46:24;;;;;;;;;;;;;;;4.67;57.60;96894.13;5075593;28;19936;-56
2023/03/06 08:48:52;;;;;;;;;;;;;;;4.76;56.54;96896.91;5077300;28;20216;-56
2023/03/06 08:51:20;;;;;;;;;;;;;;;4.76;56.26;96898.81;5078583;28;19925;-55
2023/03/06 08:53:52;;;;;;;;;;;;;;;4.92;56.48;96900.91;5083435;28;19924;-55
2023/03/06 08:56:21;;;;;;;;;;;;;;;4.90;56.87;96899.59;5085393;28;19982;-55
2023/03/06 08:58:49;;;;;;;;;;;;;;;4.96;55.77;96909.19;5086187;28;19924;-55
2023/03/06 09:01:17;;;;;;;;;;;;;;;4.97;56.28;96908.09;5085681;28;19995;-56
2023/03/06 09:03:45;;;;;;;;;;;;;;;4.86;56.26;96904.00;5090293;28;19993;-55
2023/03/06 09:06:13;;;;;;;;;;;;;;;4.93;55.94;96899.81;5086931;28;20297;-55
2023/03/06 09:08:43;;;;;;;;;;;;;;;5.09;55.92;96897.63;5086460;28;20373;-55
2023/03/06 09:11:12;;;;;;;;;;;;;;;5.09;56.25;96908.38;5077411;28;20389;-55
2023/03/06 09:13:40;;;;;;;;;;;;;;;5.31;54.74;96902.28;5083022;28;19931;-55
2023/03/06 09:16:08;;;;;;;;;;;;;;;5.28;54.78;96902.91;5076561;28;19939;-55
2023/03/06 09:18:36;;;;;;;;;;;;;;;5.35;54.36;96907.88;5079915;28;20404;-55
2023/03/06 09:21:04;;;;;;;;;;;;;;;5.24;55.67;96899.19;5084449;28;19935;-55
2023/03/06 09:23:32;;;;;;;;;;;;;;;5.26;54.79;96900.47;5083186;28;19932;-56
2023/03/06 09:26:00;;;;;;;;;;;;;;;5.30;54.85;96903.38;5080763;28;19931;-55
2023/03/06 09:28:29;;;;;;;;;;;;;;;5.37;54.60;96903.75;5083362;28;19924;-55
2023/03/06 09:30:57;;;;;;;;;;;;;;;5.40;54.17;96899.69;5069615;28;19924;-55
2023/03/06 09:33:25;;;;;;;;;;;;;;;5.46;54.74;96898.47;5078087;28;20286;-55
2023/03/06 09:35:53;;;;;;;;;;;;;;;5.59;54.24;96899.53;5084880;28;19935;-55
2023/03/06 09:38:22;;;;;;;;;;;;;;;5.66;53.74;96900.72;5086627;28;20396;-55
2023/03/06 09:40:55;;;;;;;;;;;;;;;5.42;53.44;96887.47;5087158;28;19932;-55
2023/03/06 09:43:25;;;;;;;;;;;;;;;5.32;54.28;96903.06;5077704;28;19928;-55
2023/03/06 09:45:54;;;;;;;;;;;;;;;5.26;54.49;96902.38;5079212;28;19928;-56
2023/03/06 09:48:22;;;;;;;;;;;;;;;5.34;54.14;96898.19;5083414;28;19931;-55
2023/03/06 09:50:50;;;;;;;;;;;;;;;5.25;54.17;96898.88;5087295;28;19927;-55
2023/03/06 09:53:21;;;;;;;;;;;;;;;5.24;54.73;96894.59;5085970;28;19928;-55
2023/03/06 09:55:51;;;;;;;;;;;;;;;5.22;54.56;96894.13;5084167;28;19924;-55
2023/03/06 09:58:20;;;;;;;;;;;;;;;5.31;54.26;96893.41;5086509;28;19981;-57
2023/03/06 10:00:51;;;;;;;;;;;;;;;5.43;54.12;96893.66;5084302;28;19931;-55
2023/03/06 10:03:23;;;;;;;;;;;;;;;5.33;53.51;96893.91;5090649;28;19925;-55
2023/03/06 10:05:52;;;;;;;;;;;;;;;5.23;53.86;96895.72;5081444;28;19924;-55
2023/03/06 10:08:21;;;;;;;;;;;;;;;5.09;54.13;96888.75;5087598;28;19978;-55
2023/03/06 10:10:50;;;;;;;;;;;;;;;5.08;54.78;96890.63;5088165;28;19931;-55
2023/03/06 10:13:19;;;;;;;;;;;;;;;5.18;54.34;96890.44;5087263;28;20388;-55
2023/03/06 10:15:47;;;;;;;;;;;;;;;5.09;54.11;96894.13;5080120;28;19928;-55
2023/03/06 10:18:15;;;;;;;;;;;;;;;5.02;54.85;96893.75;5088827;28;20308;-59
2023/03/06 10:20:46;;;;;;;;;;;;;;;5.07;54.78;96890.94;5089567;28;19930;-56
2023/03/06 10:23:19;;;;;;;;;;;;;;;5.04;54.99;96889.63;5086870;28;19931;-54
2023/03/06 10:25:49;;;;;;;;;;;;;;;5.07;54.85;96896.34;5085378;28;20361;-55
2023/03/06 10:28:18;;;;;;;;;;;;;;;4.86;55.65;96894.03;5082502;28;19924;-57
2023/03/06 10:30:48;;;;;;;;;;;;;;;4.84;55.98;96893.53;5073757;28;19925;-55
2023/03/06 10:33:19;;;;;;;;;;;;;;;4.91;56.07;96898.53;5069814;28;19924;-54
2023/03/06 10:35:49;;;;;;;;;;;;;;;4.89;56.31;96898.00;5049751;28;19925;-56
2023/03/06 10:38:19;;;;;;;;;;;;;;;5.01;56.77;96901.03;5075005;28;20438;-56
2023/03/06 10:40:49;;;;;;;;;;;;;;;5.12;56.38;96905.09;5087491;28;20369;-54
2023/03/06 10:43:17;;;;;;;;;;;;;;;5.04;56.81;96897.72;5090482;28;19924;-55
2023/03/06 10:45:47;;;;;;;;;;;;;;;5.05;56.53;96901.19;5074431;28;19930;-56
2023/03/06 10:48:18;;;;;;;;;;;;;;;5.11;56.66;96892.72;5106091;28;19924;-56
2023/03/06 10:50:45;;;;;;;;;;;;;;;5.23;56.05;96895.72;5107813;28;20405;-56
2023/03/06 10:53:21;;;;;;;;;;;;;;;5.46;55.87;96896.56;5109162;28;20284;-55
2023/03/06 10:55:53;;;;;;;;;;;;;;;5.57;55.00;96889.06;5104277;28;19932;-58
2023/03/06 10:58:25;;;;;;;;;;;;;;;5.39;55.62;96895.41;5111348;28;19927;-54
2023/03/06 11:01:00;;;;;;;;;;;;;;;5.19;56.26;96897.41;5101352;28;19928;-55
2023/03/06 11:03:28;;;;;;;;;;;;;;;5.09;56.79;96892.22;5101789;28;19942;-55
2023/03/06 11:05:57;;;;;;;;;;;;;;;5.21;56.59;96887.13;5090291;28;19928;-55
2023/03/06 11:08:28;;;;;;;;;;;;;;;5.21;57.09;96891.72;5089056;28;20388;-58
2023/03/06 11:10:59;;;;;;;;;;;;;;;5.23;57.07;96895.72;5102190;28;20399;-56
2023/03/06 11:13:28;;;;;;;;;;;;;;;5.28;56.12;96899.41;5085746;28;19928;-55
2023/03/06 11:16:04;;;;;;;;;;;;;;;5.24;56.56;96897.31;5087735;28;20382;-56
2023/03/06 11:18:37;;;;;;;;;;;;;;;5.37;56.49;96895.66;5079098;28;19932;-56
2023/03/06 11:21:08;;;;;;;;;;;;;;;5.43;55.16;96888.28;5083471;28;19932;-55
2023/03/06 11:23:39;;;;;;;;;;;;;;;5.38;55.29;96891.91;5089757;28;19985;-55
2023/03/06 11:26:14;;;;;;;;;;;;;;;5.23;54.88;96893.03;5089452;28;19946;-55
2023/03/06 11:28:42;;;;;;;;;;;;;;;5.19;55.49;96885.84;5085927;28;20391;-55
2023/03/06 11:31:10;;;;;;;;;;;;;;;5.17;55.41;96886.16;5082752;28;19970;-55
2023/03/06 11:33:44;;;;;;;;;;;;;;;5.28;55.04;96883.25;5079115;28;19928;-56
2023/03/06 11:36:12;;;;;;;;;;;;;;;5.33;55.06;96883.13;5083948;28;19928;-58
2023/03/06 11:38:43;;;;;;;;;;;;;;;5.43;55.34;96872.94;5076228;28;19932;-56
2023/03/06 11:41:14;;;;;;;;;;;;;;;5.49;54.97;96870.94;5082077;28;19928;-55
2023/03/06 11:43:46;;;;;;;;;;;;;;;5.44;54.97;96866.44;5087188;28;20015;-55
2023/03/06 11:46:16;;;;;;;;;;;;;;;5.41;55.12;96874.31;5076353;28;19931;-57
2023/03/06 11:48:46;;;;;;;;;;;;;;;5.21;53.81;96870.97;5073822;28;19932;-59
2023/03/06 11:51:14;;;;;;;;;;;;;;;5.17;55.39;96864.59;5079011;28;20388;-57
2023/03/06 11:53:44;;;;;;;;;;;;;;;5.06;55.78;96867.78;5087153;28;19947;-57
2023/03/06 11:56:21;;;;;;;;;;;;;;;4.84;56.73;96860.44;5085276;28;19931;-55
2023/03/06 11:59:01;;;;;;;;;;;;;;;4.77;57.62;96866.22;5088910;28;19928;-54
2023/03/06 12:01:33;;;;;;;;;;;;;;;4.87;58.64;96859.84;5072413;28;19928;-55
2023/03/06 12:04:04;;;;;;;;;;;;;;;5.07;58.30;96858.66;5072005;28;19934;-55
2023/03/06 12:06:35;;;;;;;;;;;;;;;5.19;57.35;96858.91;5082274;28;19927;-55
2023/03/06 12:09:09;;;;;;;;;;;;;;;5.09;57.39;96851.06;5080915;28;19933;-56
2023/03/06 12:11:39;;;;;;;;;;;;;;;5.18;57.32;96855.44;5083848;28;19931;-55
2023/03/06 12:14:28;;;;;;;;;;;;;;;5.20;56.85;96852.44;5087180;28;19924;-56
2023/03/06 12:16:59;;;;;;;;;;;;;;;5.19;56.83;96851.63;5078315;28;19928;-55
2023/03/06 12:19:33;;;;;;;;;;;;;;;5.28;56.70;96851.72;5083637;28;20366;-55
2023/03/06 12:22:04;;;;;;;;;;;;;;;5.37;56.79;96836.41;5082742;28;20388;-55
2023/03/06 12:24:37;;;;;;;;;;;;;;;5.44;56.21;96844.09;5087321;28;19947;-60
2023/03/06 12:27:09;;;;;;;;;;;;;;;5.50;55.44;96840.19;5075053;28;20270;-55
2023/03/06 12:29:41;;;;;;;;;;;;;;;5.47;55.21;96836.19;5076414;28;19939;-55
2023/03/06 12:32:15;;;;;;;;;;;;;;;5.51;54.93;96833.69;5072900;28;19979;-55
2023/03/06 12:34:56;;;;;;;;;;;;;;;5.60;54.28;96839.97;5074742;28;19994;-54
2023/03/06 12:37:25;;;;;;;;;;;;;;;5.72;53.93;96828.63;5024784;28;1803727;-55
2023/03/06 12:40:00;;;;;;;;;;;;;;;5.96;53.41;96831.03;5081858;28;19931;-55
2023/03/06 12:42:34;;;;;;;;;;;;;;;5.92;53.34;96819.28;5075427;28;19939;-61
2023/03/06 12:45:10;;;;;;;;;;;;;;;5.99;53.38;96820.44;5081039;28;19967;-62
2023/03/06 12:47:39;;;;;;;;;;;;;;;5.99;53.14;96819.66;5081444;28;19951;-58
2023/03/06 12:50:13;;;;;;;;;;;;;;;5.91;53.29;96818.50;5075380;28;19931;-54
2023/03/06 12:52:41;;;;;;;;;;;;;;;5.83;52.67;96815.72;5073974;28;19931;-56
2023/03/06 12:55:14;;;;;;;;;;;;;;;5.75;52.59;96815.34;5078441;28;20312;-56
2023/03/06 12:57:42;;;;;;;;;;;;;;;5.81;52.42;96810.63;5084572;28;19940;-55
2023/03/06 13:00:16;;;;;;;;;;;;;;;5.88;52.29;96818.28;5080638;28;19924;-55
2023/03/06 13:03:05;;;;;;;;;;;;;;;5.77;51.95;96817.72;5072833;28;20047;-55
2023/03/06 13:05:48;;;;;;;;;;;;;;;5.79;51.54;96807.44;5079154;28;19972;-56
2023/03/06 13:08:33;;;;;;;;;;;;;;;5.85;52.10;96798.09;5078388;28;19924;-56
2023/03/06 13:11:12;;;;;;;;;;;;;;;6.10;51.73;96809.41;5082921;28;19932;-55